Time;durP1;ratioP1;P1;durP2;ratioP2;P2;SDS_P1;SDS_P2;PMS_P1;PMS_P2;Temp;Humidity;BMP_temperature;BMP_pressure;BME280_temperature;BME280_humidity;BME280_pressure;Samples;Min_cycle;Max_cycle;Signal;HPM_P1;HPM_P2
2022/09/28 00:04:05;;;;;;;0.32;0.32;;;;;;;10.38;100.00;96532.06;10543873;27;19914;-59
2022/09/28 00:09:04;;;;;;;0.30;0.30;;;;;;;10.60;100.00;96579.19;10542947;27;20062;-59
2022/09/28 00:14:06;;;;;;;0.60;0.60;;;;;;;10.44;100.00;96556.19;10541543;27;20067;-59
2022/09/28 00:19:05;;;;;;;0.70;0.70;;;;;;;10.53;100.00;96569.81;10542533;27;20432;-59
2022/09/28 00:24:14;;;;;;;;;;;;;;;10.51;100.00;96568.97;10543028;27;20059;-59
2022/09/28 00:29:19;;;;;;;0.20;0.20;;;;;;;10.47;100.00;96567.34;10542204;27;19957;-59
2022/09/28 00:34:19;;;;;;;0.20;0.20;;;;;;;10.38;100.00;96570.13;10541778;27;20059;-59
2022/09/28 00:39:18;;;;;;;0.30;0.30;;;;;;;10.35;100.00;96568.41;10541650;27;20054;-59
2022/09/28 00:44:23;;;;;;;;;;;;;;;10.26;100.00;96566.03;10542053;27;20578;-59
2022/09/28 00:49:35;;;;;;;0.30;0.30;;;;;;;10.19;100.00;96560.09;10541236;27;19942;-60
2022/09/28 00:54:34;;;;;;;0.40;0.40;;;;;;;10.18;100.00;96557.53;10540929;27;20084;-59
2022/09/28 00:59:34;;;;;;;0.13;0.13;;;;;;;10.16;100.00;96556.69;10541194;27;20059;-59
2022/09/28 01:04:33;;;;;;;;;;;;;;;10.16;100.00;96556.69;10541305;27;20061;-59
2022/09/28 01:09:32;;;;;;;0.88;0.85;;;;;;;10.18;100.00;96554.94;10540342;27;20010;-59
2022/09/28 01:14:31;;;;;;;0.52;0.52;;;;;;;10.19;100.00;96562.69;10540492;27;20345;-59
2022/09/28 01:19:50;;;;;;;;;;;;;;;10.18;100.00;96553.19;10540629;27;20059;-59
2022/09/28 01:25:04;;;;;;;1.30;1.00;;;;;;;10.18;100.00;96557.53;10540595;27;19950;-59
2022/09/28 01:30:09;;;;;;;0.40;0.40;;;;;;;9.99;100.00;96560.44;10538671;27;20066;-59
2022/09/28 01:35:14;;;;;;;0.80;0.75;;;;;;;10.03;100.00;96568.16;10539911;27;20507;-59
2022/09/28 01:40:14;;;;;;;0.85;0.82;;;;;;;9.91;100.00;96548.50;10540107;27;20062;-59
2022/09/28 01:45:26;;;;;;;0.20;0.20;;;;;;;9.90;100.00;96552.00;10539144;27;20054;-59
2022/09/28 01:50:29;;;;;;;0.15;0.15;;;;;;;9.87;100.00;96562.41;10539351;27;20527;-59
2022/09/28 01:55:38;;;;;;;2.28;1.02;;;;;;;9.60;100.00;96559.41;10537100;28;20063;-59
2022/09/28 02:00:42;;;;;;;1.77;0.95;;;;;;;9.66;100.00;96568.81;10538843;28;20058;-59
2022/09/28 02:05:50;;;;;;;1.10;0.52;;;;;;;9.66;100.00;96569.66;10539374;28;20569;-59
2022/09/28 02:10:55;;;;;;;0.57;0.55;;;;;;;9.68;100.00;96577.41;10538693;27;20062;-59
2022/09/28 02:16:18;;;;;;;0.80;0.80;;;;;;;9.68;100.00;96591.22;10546779;27;20316;-58
2022/09/28 02:21:52;;;;;;;0.70;0.70;;;;;;;9.66;100.00;96586.94;10530941;27;20059;-59
2022/09/28 02:26:58;;;;;;;1.08;0.80;;;;;;;9.61;100.00;96575.81;10546929;27;20073;-59
2022/09/28 02:31:57;;;;;;;0.40;0.40;;;;;;;9.65;100.00;96586.09;10546990;27;20344;-59
2022/09/28 02:36:56;;;;;;;0.20;0.20;;;;;;;9.64;100.00;96586.13;10546675;27;20062;-58
2022/09/28 02:42:16;;;;;;;0.10;0.10;;;;;;;9.65;100.00;96591.28;10544832;27;20123;-58
2022/09/28 02:47:23;;;;;;;;;;;;;;;9.65;100.00;96599.06;10546994;27;20163;-59
2022/09/28 02:52:25;;;;;;;0.75;0.75;;;;;;;9.66;100.00;96605.94;10543979;27;20396;-58
2022/09/28 02:57:31;;;;;;;1.13;1.00;;;;;;;9.67;100.00;96594.69;10546178;27;20432;-58
2022/09/28 03:02:37;;;;;;;1.27;0.60;;;;;;;9.64;100.00;96594.72;10544404;27;20480;-58
2022/09/28 03:07:47;;;;;;;0.25;0.25;;;;;;;9.62;100.00;96606.00;10545346;27;20512;-58
2022/09/28 03:12:48;;;;;;;0.70;0.70;;;;;;;9.66;100.00;96613.69;10545158;27;20061;-58
2022/09/28 03:17:47;;;;;;;0.77;0.77;;;;;;;9.59;100.00;96617.25;10545176;27;20478;-59
2022/09/28 03:22:46;;;;;;;;;;;;;;;9.36;100.00;96586.53;10544852;27;20062;-58
2022/09/28 03:27:45;;;;;;;1.23;1.05;;;;;;;9.59;100.00;96622.44;10544855;27;20224;-58
2022/09/28 03:32:44;;;;;;;1.35;0.95;;;;;;;9.56;100.00;96632.88;10544340;27;20115;-58
2022/09/28 03:37:43;;;;;;;1.75;1.10;;;;;;;9.38;100.00;96620.19;10544142;27;20035;-59
2022/09/28 03:42:42;;;;;;;1.25;1.15;;;;;;;9.38;100.00;96622.78;10542710;27;20035;-59
2022/09/28 03:47:45;;;;;;;0.50;0.50;;;;;;;9.37;100.00;96627.06;10543828;27;20486;-59
2022/09/28 03:52:44;;;;;;;0.57;0.57;;;;;;;9.39;100.00;96629.66;10543407;27;20534;-58
2022/09/28 03:57:43;;;;;;;0.30;0.30;;;;;;;9.37;100.00;96624.47;10543404;27;20097;-59
2022/09/28 04:02:42;;;;;;;1.13;0.73;;;;;;;9.37;100.00;96621.88;10529396;27;20146;-58
2022/09/28 04:07:41;;;;;;;0.65;0.65;;;;;;;9.44;100.00;96622.66;10495772;28;20031;-59
2022/09/28 04:12:40;;;;;;;0.52;0.52;;;;;;;9.49;100.00;96605.34;10494005;28;20544;-59
2022/09/28 04:17:39;;;;;;;0.85;0.85;;;;;;;9.47;100.00;96592.41;10495870;28;20028;-59
2022/09/28 04:22:38;;;;;;;0.65;0.65;;;;;;;9.49;100.00;96628.66;10495895;28;20054;-59
2022/09/28 04:32:55;;;;;;;0.60;0.52;;;;;;;9.23;100.00;96628.97;10494995;28;20067;-59
2022/09/28 04:37:53;;;;;;;2.17;1.20;;;;;;;9.32;100.00;96624.56;10494141;28;20027;-59
2022/09/28 04:42:54;;;;;;;0.70;0.70;;;;;;;9.42;100.00;96617.53;10493300;28;20118;-59
2022/09/28 04:47:53;;;;;;;0.35;0.35;;;;;;;9.54;100.00;96624.25;10494391;28;20255;-59
2022/09/28 04:52:52;;;;;;;;;;;;;;;9.68;100.00;96627.50;10493016;28;20139;-58
2022/09/28 04:57:51;;;;;;;1.80;1.55;;;;;;;9.80;100.00;96623.00;10490428;28;19912;-58
2022/09/28 05:02:50;;;;;;;0.43;0.43;;;;;;;9.91;100.00;96605.50;10492922;28;20051;-59
2022/09/28 05:07:49;;;;;;;0.75;0.75;;;;;;;10.02;100.00;96615.72;10493639;28;20041;-58
2022/09/28 05:12:47;;;;;;;2.58;2.38;;;;;;;10.11;100.00;96625.91;10489065;28;20554;-59
2022/09/28 05:17:46;;;;;;;1.77;1.67;;;;;;;10.30;100.00;96613.47;10490068;28;20678;-59
2022/09/28 05:22:45;;;;;;;0.40;0.40;;;;;;;10.49;100.00;96614.84;10493202;28;20103;-58
2022/09/28 05:27:44;;;;;;;1.33;1.05;;;;;;;10.67;100.00;96607.59;10487047;28;20118;-58
2022/09/28 05:32:43;;;;;;;2.33;1.75;;;;;;;10.80;100.00;96606.47;10487852;28;20028;-60
2022/09/28 05:37:42;;;;;;;2.22;2.05;;;;;;;10.88;100.00;96595.97;10488893;28;20046;-60
2022/09/28 05:42:41;;;;;;;3.70;2.00;;;;;;;11.15;100.00;96615.28;10488638;28;20028;-60
2022/09/28 05:47:42;;;;;;;1.73;1.63;;;;;;;11.38;100.00;96605.22;10491006;28;20482;-59
2022/09/28 05:52:42;;;;;;;3.92;2.17;;;;;;;11.58;100.00;96620.38;10486950;28;20086;-59
2022/09/28 05:57:41;;;;;;;2.55;1.52;;;;;;;11.82;100.00;96603.34;10491290;28;20062;-61
2022/09/28 06:02:40;;;;;;;2.33;2.08;;;;;;;12.00;100.00;96591.63;10480362;28;20036;-61
2022/09/28 06:07:39;;;;;;;1.98;1.58;;;;;;;12.19;100.00;96627.59;10493404;28;20031;-59
2022/09/28 06:12:38;;;;;;;1.45;1.35;;;;;;;12.27;100.00;96618.72;10489796;28;20066;-59
2022/09/28 06:17:37;;;;;;;1.08;0.98;;;;;;;12.43;100.00;96620.91;10454034;28;20047;-59
2022/09/28 06:22:36;;;;;;;1.05;0.98;;;;;;;12.68;100.00;96606.34;10454645;28;20499;-60
2022/09/28 06:27:36;;;;;;;1.45;1.00;;;;;;;12.85;100.00;96624.09;10473348;28;20067;-59
2022/09/28 06:32:35;;;;;;;3.03;1.70;;;;;;;13.04;100.00;96641.78;10494936;28;20064;-59
2022/09/28 06:37:34;;;;;;;1.17;1.08;;;;;;;13.32;100.00;96645.28;10479633;28;20031;-60
2022/09/28 06:42:33;;;;;;;0.63;0.63;;;;;;;13.40;100.00;96632.06;10496401;28;20027;-60
2022/09/28 06:47:32;;;;;;;1.83;1.27;;;;;;;13.73;100.00;96655.41;10497953;28;20024;-60
2022/09/28 06:52:31;;;;;;;;;;;;;;;14.02;100.00;96640.59;10496881;28;20095;-60
2022/09/28 06:57:30;;;;;;;0.65;0.65;;;;;;;14.14;100.00;96629.75;10495091;28;19907;-61
2022/09/28 07:02:30;;;;;;;0.50;0.50;;;;;;;14.36;100.00;96637.72;10506990;28;20023;-61
2022/09/28 07:07:30;;;;;;;1.27;1.08;;;;;;;14.51;100.00;96626.72;10507551;28;20078;-63
2022/09/28 07:12:29;;;;;;;3.17;1.10;;;;;;;14.46;100.00;96596.47;10497408;28;20059;-61
2022/09/28 07:17:27;;;;;;;;;;;;;;;14.92;100.00;96641.84;10503875;28;20107;-60
2022/09/28 07:22:26;;;;;;;0.40;0.40;;;;;;;15.13;100.00;96637.59;10507233;28;19908;-61
2022/09/28 07:27:26;;;;;;;;;;;;;;;15.42;100.00;96647.84;10507440;28;20058;-61
2022/09/28 07:32:26;;;;;;;0.60;0.60;;;;;;;15.63;100.00;96638.31;10479704;28;19912;-61
2022/09/28 07:37:25;;;;;;;0.32;0.32;;;;;;;15.87;100.00;96619.97;10507260;28;20058;-61
2022/09/28 07:42:28;;;;;;;;;;;;;;;16.12;100.00;96634.69;10506858;28;20055;-61
2022/09/28 07:47:27;;;;;;;0.40;0.40;;;;;;;16.29;100.00;96616.50;10506613;28;19957;-61
2022/09/28 07:52:27;;;;;;;0.32;0.32;;;;;;;16.58;100.00;96607.38;10506477;28;20086;-60
2022/09/28 07:57:27;;;;;;;0.35;0.35;;;;;;;16.79;100.00;96618.69;10505678;28;20055;-60
2022/09/28 08:02:26;;;;;;;2.42;1.17;;;;;;;16.97;100.00;96597.88;10502693;28;20456;-60
2022/09/28 08:07:26;;;;;;;0.65;0.65;;;;;;;17.21;100.00;96601.16;10500498;28;20059;-59
2022/09/28 08:12:25;;;;;;;0.52;0.52;;;;;;;17.51;100.00;96585.75;10501200;28;20066;-59
2022/09/28 08:17:23;;;;;;;0.25;0.25;;;;;;;17.93;100.00;96606.50;10500831;28;20076;-61
2022/09/28 08:22:22;;;;;;;2.70;1.20;;;;;;;18.06;100.00;96612.00;10501566;28;20042;-59
2022/09/28 08:27:21;;;;;;;7.32;2.38;;;;;;;18.43;100.00;96604.03;10500599;28;20551;-60
2022/09/28 08:32:20;;;;;;;3.05;2.08;;;;;;;18.81;100.00;96610.84;10497699;28;20040;-60
2022/09/28 08:37:19;;;;;;;8.50;1.90;;;;;;;18.93;85.44;96614.59;10499635;28;20484;-59
2022/09/28 08:42:21;;;;;;;4.40;2.40;;;;;;;19.19;82.89;96607.09;10501165;28;20028;-59
2022/09/28 08:52:56;;;;;;;3.22;1.52;;;;;;;19.64;64.35;96605.53;10500181;28;20075;-60
2022/09/28 08:58:01;;;;;;;4.57;1.90;;;;;;;20.05;66.28;96592.69;10499908;28;20465;-60
2022/09/28 09:03:15;;;;;;;5.13;1.73;;;;;;;20.40;68.64;96595.06;10500059;28;20059;-60
2022/09/28 09:08:34;;;;;;;5.35;1.77;;;;;;;20.71;68.00;96598.50;10499149;28;20059;-60
2022/09/28 09:13:39;;;;;;;6.88;2.08;;;;;;;20.95;68.17;96598.81;10491309;28;20075;-60
2022/09/28 09:18:56;;;;;;;5.45;1.60;;;;;;;21.18;63.29;96597.38;10498253;28;20636;-60
2022/09/28 09:24:00;;;;;;;4.90;1.50;;;;;;;21.24;52.00;96585.63;10499023;28;20650;-60
2022/09/28 09:29:06;;;;;;;4.75;1.80;;;;;;;21.41;50.30;96590.72;10499427;28;20054;-60
2022/09/28 09:34:10;;;;;;;4.47;1.55;;;;;;;21.77;48.89;96591.94;10499017;28;20062;-61
2022/09/28 09:39:28;;;;;;;4.35;1.67;;;;;;;22.01;48.20;96597.44;10519536;27;20055;-60
2022/09/28 09:44:30;;;;;;;5.38;1.92;;;;;;;22.22;51.99;96605.75;10512609;27;20472;-60
2022/09/28 09:49:35;;;;;;;4.90;1.88;;;;;;;22.42;52.42;96606.22;10496553;28;20070;-60
2022/09/28 09:54:41;;;;;;;4.43;1.75;;;;;;;22.48;54.24;96605.81;10497782;28;20078;-60
2022/09/28 09:59:43;;;;;;;4.82;2.10;;;;;;;22.33;49.96;96600.59;10498586;28;20054;-60
2022/09/28 10:04:45;;;;;;;2.45;1.50;;;;;;;22.50;53.43;96603.91;10500940;28;20022;-61
2022/09/28 10:09:47;;;;;;;5.10;2.00;;;;;;;22.57;53.44;96600.72;10538497;28;20043;-60
2022/09/28 10:14:46;;;;;;;3.17;1.60;;;;;;;22.69;51.15;96604.34;10541072;28;20423;-60
2022/09/28 10:19:45;;;;;;;4.40;1.60;;;;;;;22.76;52.63;96591.59;10539258;28;20078;-60
2022/09/28 10:24:47;;;;;;;4.55;1.92;;;;;;;22.78;49.69;96587.88;10539416;28;20019;-60
2022/09/28 10:29:54;;;;;;;5.38;2.38;;;;;;;22.80;49.00;96583.34;10537276;28;20054;-60
2022/09/28 10:35:11;;;;;;;6.72;2.25;;;;;;;22.54;47.83;96531.38;10519963;27;20059;-60
2022/09/28 10:40:59;;;;;;;4.55;2.22;;;;;;;22.85;48.06;96587.47;10504894;28;20535;-60
2022/09/28 10:46:10;;;;;;;4.82;2.22;;;;;;;22.67;44.38;96563.97;10502661;27;20066;-59
2022/09/28 10:51:09;;;;;;;4.18;1.90;;;;;;;22.72;46.33;96583.00;10505275;28;20035;-60
2022/09/28 10:56:20;;;;;;;3.58;1.98;;;;;;;22.66;42.65;96570.19;10507001;28;20072;-60
2022/09/28 11:01:25;;;;;;;7.88;2.78;;;;;;;22.90;47.19;96577.41;10504825;28;20079;-60
2022/09/28 11:06:45;;;;;;;5.60;2.00;;;;;;;22.83;47.85;96571.69;10501756;28;20059;-60
2022/09/28 11:11:44;;;;;;;5.00;1.70;;;;;;;22.61;48.49;96551.16;10503005;28;20055;-60
2022/09/28 11:16:43;;;;;;;4.95;2.03;;;;;;;22.70;49.46;96557.59;10502512;28;20093;-60
2022/09/28 11:21:44;;;;;;;5.43;1.73;;;;;;;22.83;50.25;96547.03;10502050;28;20028;-59
2022/09/28 11:26:51;;;;;;;5.18;1.60;;;;;;;23.12;48.91;96560.91;10502273;28;20504;-60
2022/09/28 11:31:50;;;;;;;3.95;1.50;;;;;;;23.31;48.54;96552.50;10500630;28;20128;-60
2022/09/28 11:37:12;;;;;;;3.15;1.60;;;;;;;23.50;44.68;96531.69;10502030;28;20059;-60
2022/09/28 11:42:50;;;;;;;3.63;1.50;;;;;;;23.72;45.54;96541.56;10502523;28;20064;-60
2022/09/28 11:47:56;;;;;;;5.30;1.83;;;;;;;23.79;41.94;96539.31;10501201;28;20059;-60
2022/09/28 11:53:09;;;;;;;4.43;1.80;;;;;;;23.83;43.51;96538.13;10500971;28;20086;-60
2022/09/28 11:58:43;;;;;;;8.88;2.00;;;;;;;23.99;41.30;96520.13;10501296;28;20066;-60
2022/09/28 12:03:50;;;;;;;7.63;3.03;;;;;;;24.21;42.05;96526.50;10500843;28;20129;-60
2022/09/28 12:08:54;;;;;;;2.35;1.58;;;;;;;24.46;39.92;96518.34;10500940;28;20051;-60
2022/09/28 12:13:57;;;;;;;4.63;2.20;;;;;;;24.47;38.62;96517.41;10500469;28;20492;-60
2022/09/28 12:19:32;;;;;;;6.38;1.85;;;;;;;24.35;39.98;96507.72;10500468;28;20077;-60
2022/09/28 12:24:47;;;;;;;3.35;2.20;;;;;;;24.51;38.38;96527.78;10492353;28;20456;-60
2022/09/28 12:30:00;;;;;;;5.72;1.98;;;;;;;24.67;41.84;96515.84;10499839;28;20058;-60
2022/09/28 12:35:00;;;;;;;7.45;2.40;;;;;;;24.89;41.17;96514.19;10500039;28;20063;-60
2022/09/28 12:40:11;;;;;;;8.55;2.25;;;;;;;25.15;41.78;96525.41;10494601;28;20070;-60
2022/09/28 12:45:39;;;;;;;6.53;2.38;;;;;;;25.21;42.24;96527.56;10496958;28;20555;-58
2022/09/28 12:51:15;;;;;;;6.38;2.38;;;;;;;25.18;39.89;96519.03;10498821;28;20078;-59
2022/09/28 12:56:20;;;;;;;5.68;2.92;;;;;;;25.06;38.32;96511.06;10498022;28;20066;-59
2022/09/28 13:01:34;;;;;;;5.03;2.47;;;;;;;25.24;40.88;96516.72;10500721;28;20512;-59
2022/09/28 13:07:14;;;;;;;6.30;2.60;;;;;;;25.77;40.24;96507.22;10501943;28;20066;-59
2022/09/28 13:12:32;;;;;;;5.13;2.30;;;;;;;26.04;37.16;96504.06;10493478;28;20411;-59
2022/09/28 13:17:37;;;;;;;5.35;2.03;;;;;;;25.71;36.33;96501.44;10459629;28;20023;-59
2022/09/28 13:22:55;;;;;;;3.90;2.20;;;;;;;25.23;37.83;96501.75;10458009;28;20024;-59
2022/09/28 13:28:01;;;;;;;7.70;2.40;;;;;;;25.01;37.39;96499.97;10458016;28;20505;-59
2022/09/28 13:33:03;;;;;;;3.30;1.92;;;;;;;25.21;39.62;96511.66;10459163;28;20059;-59
2022/09/28 13:38:14;;;;;;;3.65;1.90;;;;;;;25.06;37.38;96510.22;10459137;28;20031;-59
2022/09/28 13:43:54;;;;;;;7.95;2.63;;;;;;;25.09;38.80;96505.50;10458766;28;20016;-59
2022/09/28 13:49:13;;;;;;;4.00;2.13;;;;;;;25.19;39.44;96510.94;10458043;28;20046;-59
2022/09/28 13:54:44;;;;;;;6.25;3.03;;;;;;;25.38;39.30;96512.94;10458810;28;20068;-60
2022/09/28 13:59:52;;;;;;;6.70;2.70;;;;;;;25.40;39.01;96504.84;10457775;28;20063;-59
2022/09/28 14:05:24;;;;;;;8.10;2.63;;;;;;;25.52;39.93;96503.84;10455069;28;20832;-59
2022/09/28 14:10:48;;;;;;;4.60;2.35;;;;;;;25.53;39.88;96510.88;10461828;28;20064;-61
2022/09/28 14:15:47;;;;;;;6.95;2.80;;;;;;;25.45;40.10;96514.13;10461710;28;20064;-60
2022/09/28 14:21:13;;;;;;;4.57;2.60;;;;;;;25.22;41.07;96512.50;10463463;28;20472;-60
2022/09/28 14:26:40;;;;;;;10.77;4.57;;;;;;;25.11;40.49;96521.31;10451791;28;20092;-61
2022/09/28 14:31:42;;;;;;;10.68;3.78;;;;;;;24.94;41.63;96513.84;10463017;28;20067;-61
2022/09/28 14:42:15;;;;;;;6.43;3.00;;;;;;;24.90;42.94;96527.34;10462770;28;20476;-61
2022/09/28 14:47:51;;;;;;;7.43;3.00;;;;;;;24.80;43.96;96518.41;10461899;28;20470;-60
2022/09/28 14:52:53;;;;;;;7.25;3.05;;;;;;;24.57;43.50;96506.09;10437485;28;20089;-62
2022/09/28 14:57:55;;;;;;;8.93;3.75;;;;;;;24.64;43.35;96516.09;10460136;28;20075;-61
2022/09/28 15:02:59;;;;;;;7.38;3.33;;;;;;;24.57;43.73;96517.53;10461428;28;20489;-62
2022/09/28 15:08:00;;;;;;;10.40;3.63;;;;;;;24.30;43.78;96501.94;10460958;28;20060;-59
2022/09/28 15:13:02;;;;;;;10.77;3.60;;;;;;;23.87;45.21;96510.44;10473024;28;20051;-59
2022/09/28 15:18:07;;;;;;;14.50;5.40;;;;;;;23.80;45.02;96533.06;10501055;28;20067;-59
2022/09/28 15:23:23;;;;;;;14.20;5.53;;;;;;;23.66;45.38;96530.59;10500464;28;20059;-58
2022/09/28 15:28:23;;;;;;;25.00;12.05;;;;;;;23.48;45.56;96522.16;10500635;28;20051;-59
2022/09/28 15:38:41;;;;;;;33.63;18.05;;;;;;;22.91;46.44;96516.47;10500853;28;20071;-59
2022/09/28 15:43:40;;;;;;;13.85;6.68;;;;;;;22.77;47.40;96532.47;10499605;28;20046;-59
2022/09/28 15:48:54;;;;;;;10.10;5.80;;;;;;;22.50;47.98;96535.16;10498503;28;20063;-59
2022/09/28 15:54:22;;;;;;;10.40;5.28;;;;;;;22.08;49.10;96534.47;10498947;28;20073;-60
2022/09/28 15:59:28;;;;;;;13.70;7.10;;;;;;;21.85;49.21;96544.75;10499135;28;20062;-59
2022/09/28 16:04:38;;;;;;;12.13;5.57;;;;;;;21.65;49.62;96547.84;10497697;28;20507;-60
2022/09/28 16:09:55;;;;;;;14.40;6.00;;;;;;;21.45;49.84;96552.63;10497894;28;20059;-59
2022/09/28 16:14:55;;;;;;;20.00;5.80;;;;;;;21.26;50.71;96557.34;10495197;28;20063;-59
2022/09/28 16:19:54;;;;;;;14.65;5.60;;;;;;;21.02;51.45;96560.56;10498234;28;20055;-59
2022/09/28 16:24:55;;;;;;;13.80;5.20;;;;;;;20.58;53.97;96565.91;10494090;28;20055;-61
2022/09/28 16:30:11;;;;;;;9.77;4.70;;;;;;;20.28;56.24;96556.22;10475985;28;20469;-60
2022/09/28 16:35:10;;;;;;;7.97;5.43;;;;;;;19.99;57.50;96550.03;10456497;28;20067;-60
2022/09/28 16:40:11;;;;;;;14.27;6.07;;;;;;;19.68;58.38;96549.19;10455110;28;20075;-60
2022/09/28 16:45:18;;;;;;;18.10;6.90;;;;;;;19.50;59.29;96560.69;10455475;28;20326;-59
2022/09/28 16:50:20;;;;;;;17.65;7.07;;;;;;;19.25;60.43;96567.31;10455747;28;20075;-58
2022/09/28 16:55:19;;;;;;;15.95;8.43;;;;;;;19.03;62.26;96579.00;10455327;28;20553;-58
2022/09/28 17:00:23;;;;;;;20.52;8.93;;;;;;;18.77;63.17;96569.03;10454602;28;20031;-60
2022/09/28 17:05:23;;;;;;;16.92;6.93;;;;;;;18.52;64.12;96577.31;10455612;28;20055;-60
2022/09/28 17:10:33;;;;;;;15.60;6.78;;;;;;;18.38;65.58;96580.63;10449272;28;20571;-60
2022/09/28 17:15:32;;;;;;;14.75;6.60;;;;;;;18.10;66.49;96573.31;10452760;28;20075;-60
2022/09/28 17:20:33;;;;;;;15.30;7.80;;;;;;;17.89;68.59;96585.72;10454313;28;20539;-60
2022/09/28 17:25:32;;;;;;;18.90;10.38;;;;;;;17.60;70.45;96587.09;10452714;28;20064;-60
2022/09/28 17:30:31;;;;;;;14.13;8.80;;;;;;;17.31;72.88;96592.81;10453001;28;20523;-60
2022/09/28 17:35:30;;;;;;;17.17;10.45;;;;;;;16.88;75.43;96583.41;10453836;28;20027;-60
2022/09/28 17:40:29;;;;;;;;;;;;;;;16.85;75.06;96588.81;10453842;28;20485;-60
2022/09/28 17:45:30;;;;;;;15.53;9.87;;;;;;;16.78;74.84;96593.44;10454130;28;20091;-60
2022/09/28 17:50:32;;;;;;;12.25;9.32;;;;;;;16.70;76.22;96596.41;10453093;28;20076;-60
2022/09/28 17:55:35;;;;;;;13.85;9.70;;;;;;;16.50;76.67;96599.88;10452710;28;20071;-60
2022/09/28 18:00:34;;;;;;;13.70;9.70;;;;;;;16.39;77.22;96602.09;10455236;28;20091;-60
2022/09/28 18:05:36;;;;;;;15.38;9.38;;;;;;;16.36;78.18;96611.88;10455680;28;20039;-60
2022/09/28 18:10:35;;;;;;;12.82;7.55;;;;;;;16.14;78.25;96597.06;10456124;28;20062;-60
2022/09/28 18:15:34;;;;;;;;;;;;;;;16.18;77.96;96624.78;10457005;28;20067;-60
2022/09/28 18:20:33;;;;;;;14.30;7.07;;;;;;;16.20;77.58;96632.59;10452150;28;19966;-60
2022/09/28 18:25:32;;;;;;;11.25;7.18;;;;;;;16.18;78.14;96637.03;10413659;28;20043;-60
2022/09/28 18:30:31;;;;;;;;;;;;;;;16.16;78.94;96652.81;10414100;28;20115;-60
2022/09/28 18:35:30;;;;;;;20.00;9.32;;;;;;;16.15;79.34;96645.88;10414500;28;20003;-60
2022/09/28 18:40:29;;;;;;;;;;;;;;;16.21;79.89;96655.25;10411888;28;20040;-60
2022/09/28 18:45:28;;;;;;;19.67;10.70;;;;;;;16.02;81.29;96642.91;10438199;28;19912;-60
2022/09/28 18:50:26;;;;;;;;;;;;;;;16.05;81.93;96666.34;10456302;28;20097;-60
2022/09/28 18:55:25;;;;;;;25.43;15.63;;;;;;;15.97;82.51;96663.16;10458311;28;20420;-60
2022/09/28 19:00:24;;;;;;;;;;;;;;;16.01;82.58;96677.81;10462139;28;20439;-60
2022/09/28 19:05:23;;;;;;;16.93;12.33;;;;;;;15.98;82.49;96672.72;10459680;28;20392;-60
2022/09/28 19:10:22;;;;;;;;;;;;;;;16.01;82.67;96675.22;10459311;28;20047;-60
2022/09/28 19:15:21;;;;;;;14.32;10.00;;;;;;;15.90;82.61;96660.84;10459371;28;20489;-60
2022/09/28 19:20:20;;;;;;;17.75;11.40;;;;;;;15.88;82.82;96663.56;10458741;28;20071;-60
2022/09/28 19:25:19;;;;;;;;;;;;;;;15.99;82.64;96677.03;10459634;28;20020;-60
2022/09/28 19:30:18;;;;;;;22.83;12.30;;;;;;;15.91;82.85;96679.13;10458382;28;19951;-60
2022/09/28 19:35:17;;;;;;;;;;;;;;;15.90;83.03;96684.41;10459499;28;20036;-60
2022/09/28 19:40:16;;;;;;;18.70;12.70;;;;;;;15.83;83.63;96681.16;10458305;28;19949;-60
2022/09/28 19:45:14;;;;;;;;;;;;;;;15.81;83.82;96678.63;10458810;28;20060;-60
2022/09/28 19:50:13;;;;;;;21.17;13.13;;;;;;;15.70;84.40;96669.47;10456152;28;19947;-60
2022/09/28 19:55:12;;;;;;;;;;;;;;;15.68;85.12;96691.28;10458609;28;20500;-60
2022/09/28 20:00:11;;;;;;;22.08;13.55;;;;;;;15.70;84.78;96690.38;10457732;28;19958;-60
2022/09/28 20:05:10;;;;;;;;;;;;;;;15.64;85.04;96686.22;10457772;28;20059;-59
2022/09/28 20:10:10;;;;;;;22.57;15.73;;;;;;;15.55;85.82;96679.63;10457250;28;19959;-60
2022/09/28 20:15:09;;;;;;;28.15;17.02;;;;;;;15.34;87.57;96696.06;10455283;28;20075;-60
2022/09/28 20:20:08;;;;;;;;;;;;;;;15.13;89.05;96701.19;10455295;28;20516;-60
2022/09/28 20:25:07;;;;;;;18.83;12.90;;;;;;;14.90;88.88;96672.44;10416134;28;19909;-60
2022/09/28 20:30:06;;;;;;;;;;;;;;;14.91;89.06;96681.97;10413635;28;20068;-60
2022/09/28 20:35:06;;;;;;;16.13;11.77;;;;;;;14.70;89.43;96666.13;10415138;28;20378;-60
2022/09/28 20:40:05;;;;;;;15.35;12.55;;;;;;;14.72;89.13;96689.59;10414649;28;20074;-60
2022/09/28 20:45:05;;;;;;;21.23;12.85;;;;;;;14.50;90.61;96697.25;10414265;28;20056;-60
2022/09/28 20:50:05;;;;;;;18.52;12.57;;;;;;;14.56;91.31;96705.75;10411991;28;20067;-60
2022/09/28 20:55:04;;;;;;;22.63;13.30;;;;;;;14.48;91.41;96701.69;10414255;28;20498;-60
2022/09/28 21:00:04;;;;;;;22.30;12.90;;;;;;;14.48;91.28;96712.13;10414382;28;20493;-59
2022/09/28 21:05:03;;;;;;;19.02;13.70;;;;;;;14.47;91.61;96710.41;10413365;28;20509;-60
2022/09/28 21:10:02;;;;;;;22.55;14.85;;;;;;;14.38;91.75;96702.00;10413887;28;20070;-60
2022/09/28 21:15:01;;;;;;;20.23;14.73;;;;;;;14.32;92.34;96723.06;10413424;28;20060;-59
2022/09/28 21:20:01;;;;;;;21.08;14.55;;;;;;;14.31;92.39;96724.00;10412060;28;20059;-59
2022/09/28 21:25:00;;;;;;;16.85;12.82;;;;;;;14.19;92.96;96701.75;10412898;28;20517;-59
2022/09/28 21:29:59;;;;;;;;;;;;;;;14.16;93.94;96714.03;10413103;28;20093;-60
2022/09/28 21:34:58;;;;;;;21.55;17.75;;;;;;;14.06;94.38;96716.09;10410878;28;19964;-60
2022/09/28 21:39:58;;;;;;;24.10;18.88;;;;;;;13.90;94.16;96709.63;10412952;28;20029;-61
2022/09/28 21:44:57;;;;;;;25.65;14.43;;;;;;;13.91;94.30;96732.19;10412278;28;20075;-59
2022/09/28 21:49:56;;;;;;;;;;;;;;;13.78;94.73;96723.91;10411143;28;20029;-58
2022/09/28 21:54:55;;;;;;;16.45;9.30;;;;;;;13.75;94.18;96724.00;10412459;28;19974;-59
2022/09/28 21:59:53;;;;;;;18.63;11.63;;;;;;;13.66;94.37;96742.53;10412123;28;20454;-58
2022/09/28 22:04:52;;;;;;;21.25;14.63;;;;;;;13.61;94.54;96745.28;10412443;28;20397;-59
2022/09/28 22:09:51;;;;;;;18.55;12.25;;;;;;;13.49;94.53;96719.50;10411326;28;20031;-60
2022/09/28 22:14:50;;;;;;;17.17;12.43;;;;;;;13.32;94.76;96718.25;10410919;28;20139;-60
2022/09/28 22:19:49;;;;;;;20.02;12.32;;;;;;;13.36;95.06;96721.63;10408021;28;20039;-59
2022/09/28 22:24:48;;;;;;;18.20;12.93;;;;;;;13.22;96.47;96721.19;10406211;28;20029;-58
2022/09/28 22:29:47;;;;;;;20.13;12.32;;;;;;;13.03;96.29;96695.63;10413460;28;20107;-59
2022/09/28 22:34:46;;;;;;;16.20;11.93;;;;;;;12.70;96.19;96646.19;10419183;28;20039;-61
2022/09/28 22:39:45;;;;;;;17.58;13.07;;;;;;;13.03;96.91;96711.25;10419388;28;20360;-59
2022/09/28 22:44:44;;;;;;;23.50;13.75;;;;;;;13.01;97.45;96718.25;10419662;28;20056;-60
2022/09/28 22:49:43;;;;;;;19.70;14.38;;;;;;;12.80;98.08;96682.41;10418021;28;20032;-60
2022/09/28 22:54:42;;;;;;;19.05;13.48;;;;;;;12.92;98.46;96723.72;10418656;28;20024;-58
2022/09/28 22:59:41;;;;;;;21.58;13.25;;;;;;;12.91;98.27;96719.41;10420033;28;20120;-59
2022/09/28 23:04:40;;;;;;;17.73;13.25;;;;;;;12.81;98.34;96705.75;10421719;28;20096;-58
2022/09/28 23:09:39;;;;;;;19.35;13.00;;;;;;;12.92;98.34;96723.72;10421284;28;20111;-62
2022/09/28 23:14:37;;;;;;;26.85;13.73;;;;;;;12.81;98.51;96710.97;10420457;28;20036;-60
2022/09/28 23:19:36;;;;;;;21.35;14.23;;;;;;;12.82;99.21;96722.25;10420828;28;20151;-60
2022/09/28 23:24:35;;;;;;;18.02;13.27;;;;;;;12.79;99.41;96736.22;10420779;28;20027;-60
2022/09/28 23:29:34;;;;;;;19.92;13.25;;;;;;;12.84;99.42;96738.69;10421471;28;20107;-60
2022/09/28 23:34:33;;;;;;;17.77;13.48;;;;;;;12.77;99.15;96716.31;10420582;28;20071;-60
2022/09/28 23:39:32;;;;;;;22.77;15.07;;;;;;;12.85;99.38;96737.78;10419485;28;20111;-58
2022/09/28 23:44:32;;;;;;;20.52;15.13;;;;;;;12.82;99.40;96732.69;10420749;28;20086;-58
2022/09/28 23:49:31;;;;;;;24.77;15.18;;;;;;;12.68;99.62;96720.88;10419927;28;20102;-58
2022/09/28 23:54:30;;;;;;;18.73;14.30;;;;;;;12.69;100.00;96735.56;10419742;28;20080;-58